Terminal Aerodrome Forecast
Issued by NWS

Home | Current Version | Previous Version | Text Only | Print | Product List | Glossary On
Versions: 1 2 3 4 5 6 7 8 9 10 11 12 13 14 15 16 17 18 19 20 21 22 23 24 25 26 27
847
FTUS43 KDLH 241414 AAB
TAFBRD
TAF AMD
KBRD 241414Z 2414/2512 18010KT P6SM BKN250
     FM241800 19012G20KT P6SM SCT025 SCT250
     FM242030 20012KT P6SM -SHRA VCTS SCT035CB BKN100
      TEMPO 2421/2423 -TSRA BKN035CB OVC100
     FM250000 26006KT P6SM SCT015 BKN040
     FM250400 30003KT 4SM BR SCT007 OVC015
     FM250700 33003KT 2SM BR SCT004 OVC007=

USA.gov is the U.S. government's official web portal to all federal, state and local government web resources and services.